Terminal Aerodrome Forecast
Issued by NWS

Home | Current Version | Previous Version | Text Only | Print | Product List | Glossary On
Versions: 1 2 3 4 5 6 7 8 9 10 11 12 13 14 15 16 17 18
000
FTUS46 KSEW 291720
TAFSEA
TAF
KSEA 291720Z 2918/3024 30004KT P6SM SKC
     FM291900 30008KT P6SM SKC
     FM300600 25005KT P6SM SCT040 SCT200
     FM301100 18007KT P6SM BKN015
     FM301600 20006KT P6SM SCT015 BKN040=

USA.gov is the U.S. government's official web portal to all federal, state and local government web resources and services.